createdAt,value
2022-10-20T00:01:10.131Z,80.6
2022-10-20T00:02:26.303Z,80.6
2022-10-20T00:03:42.712Z,80.6
2022-10-20T00:04:58.898Z,80.6
2022-10-20T00:06:14.872Z,80.6
2022-10-20T00:07:31.284Z,80.6
2022-10-20T00:08:47.468Z,80.6
2022-10-20T00:10:02.468Z,80.8
2022-10-20T00:11:17.882Z,80.7
2022-10-20T00:12:32.886Z,80.7
2022-10-20T00:13:48.295Z,80.7
2022-10-20T00:15:04.269Z,80.7
2022-10-20T00:16:20.452Z,80.8
2022-10-20T00:17:36.869Z,80.8
2022-10-20T00:18:53.054Z,80.9
2022-10-20T00:20:09.006Z,80.9
2022-10-20T00:21:25.210Z,80.9
2022-10-20T00:22:41.400Z,81
2022-10-20T00:23:57.806Z,80.9
2022-10-20T00:25:13.984Z,81
2022-10-20T00:26:29.960Z,81
2022-10-20T00:27:46.127Z,81
2022-10-20T00:29:02.334Z,81
2022-10-20T00:30:17.758Z,81.1
2022-10-20T00:31:33.949Z,81.1
2022-10-20T00:32:50.123Z,81.1
2022-10-20T00:34:06.090Z,81.1
2022-10-20T00:35:22.271Z,81.1
2022-10-20T00:36:38.454Z,81.2
2022-10-20T00:37:54.639Z,81.2
2022-10-20T00:39:09.856Z,81.2
2022-10-20T00:40:25.072Z,81.2
2022-10-20T00:41:41.474Z,81.2
2022-10-20T00:42:56.692Z,81.2
2022-10-20T00:44:11.662Z,81.3
2022-10-20T00:45:28.087Z,81.2
2022-10-20T00:46:44.054Z,81.3
2022-10-20T00:48:00.237Z,81.4
2022-10-20T00:49:16.408Z,81.4
2022-10-20T00:50:32.598Z,81.4
2022-10-20T00:51:48.795Z,81.4
2022-10-20T00:53:05.216Z,81.4
2022-10-20T00:54:21.172Z,81.5
2022-10-20T00:55:37.588Z,81.5
2022-10-20T00:56:53.545Z,81.5
2022-10-20T00:58:09.953Z,81.5
2022-10-20T00:59:25.910Z,81.4
2022-10-20T01:00:41.108Z,81.5
2022-10-20T01:01:57.292Z,81.6
2022-10-20T01:03:13.713Z,81.5
2022-10-20T01:04:29.682Z,81.5
2022-10-20T01:05:45.872Z,81.6
2022-10-20T01:07:02.047Z,81.6
2022-10-20T01:08:18.478Z,81.8
2022-10-20T01:09:33.449Z,81.8
2022-10-20T01:10:48.890Z,81.8
2022-10-20T01:12:04.103Z,81.6
2022-10-20T01:13:19.079Z,81.6
2022-10-20T01:14:35.259Z,81.6
2022-10-20T01:15:51.678Z,81.8
2022-10-20T01:17:07.628Z,81.8
2022-10-20T01:18:23.822Z,81.8
2022-10-20T01:19:40.238Z,81.8
2022-10-20T01:20:56.422Z,81.8
2022-10-20T01:22:12.374Z,81.8
2022-10-20T01:23:28.804Z,81.8
2022-10-20T01:24:44.751Z,81.8
2022-10-20T01:26:00.931Z,81.8
2022-10-20T01:27:17.372Z,81.8
2022-10-20T01:28:33.303Z,81.8
2022-10-20T01:29:48.506Z,81.8
2022-10-20T01:31:04.713Z,82
2022-10-20T01:32:20.896Z,82
2022-10-20T01:33:37.315Z,82
2022-10-20T01:34:53.501Z,82
2022-10-20T01:36:09.703Z,82
2022-10-20T01:37:25.642Z,82
2022-10-20T01:38:40.854Z,82
2022-10-20T01:39:56.058Z,82
2022-10-20T01:41:11.268Z,82
2022-10-20T01:42:26.463Z,82
2022-10-20T01:43:41.685Z,82
2022-10-20T01:44:56.896Z,82
2022-10-20T01:46:13.321Z,82
2022-10-20T01:47:29.266Z,82
2022-10-20T01:48:45.440Z,82
2022-10-20T01:50:01.890Z,82
2022-10-20T01:51:17.827Z,82
2022-10-20T01:52:34.015Z,82
2022-10-20T01:53:50.199Z,82
2022-10-20T01:55:06.390Z,82.2
2022-10-20T01:56:22.572Z,82.2
2022-10-20T01:57:38.769Z,82.2
2022-10-20T01:58:55.188Z,82.2
2022-10-20T02:00:11.125Z,82.2
2022-10-20T02:01:26.334Z,82.2
2022-10-20T02:02:42.529Z,82.2
2022-10-20T02:03:58.717Z,82.2
2022-10-20T02:05:15.148Z,82.2
2022-10-20T02:06:31.086Z,82.2
2022-10-20T02:07:47.276Z,82.2
2022-10-20T02:09:03.466Z,82.2
2022-10-20T02:10:18.682Z,82.3
2022-10-20T02:11:34.122Z,82.3
2022-10-20T02:12:50.314Z,82.3
2022-10-20T02:14:06.500Z,82.3
2022-10-20T02:15:22.439Z,82.3
2022-10-20T02:16:38.629Z,82.3
2022-10-20T02:17:54.813Z,82.3
2022-10-20T02:19:11.252Z,82.3
2022-10-20T02:20:27.438Z,82.3
2022-10-20T02:21:43.375Z,82.3
2022-10-20T02:22:59.550Z,82.3
2022-10-20T02:24:15.992Z,82.3
2022-10-20T02:25:31.937Z,82.3
2022-10-20T02:26:48.373Z,82.3
2022-10-20T02:28:03.571Z,82.3
2022-10-20T02:29:19.501Z,82.3
2022-10-20T02:30:35.697Z,82.5
2022-10-20T02:31:52.145Z,82.5
2022-10-20T02:33:08.081Z,82.5
2022-10-20T02:34:24.262Z,82.3
2022-10-20T02:35:40.700Z,82.3
2022-10-20T02:36:55.916Z,82.3
2022-10-20T02:38:10.873Z,82.3
2022-10-20T02:39:26.346Z,82.5
2022-10-20T02:40:41.278Z,82.3
2022-10-20T02:41:57.718Z,82.5
2022-10-20T02:43:13.917Z,82.5
2022-10-20T02:44:30.098Z,82.5
2022-10-20T02:45:46.030Z,82.5
2022-10-20T02:47:02.209Z,82.3
2022-10-20T02:48:18.411Z,82.5
2022-10-20T02:49:34.856Z,82.5
2022-10-20T02:50:51.035Z,82.5
2022-10-20T02:52:07.217Z,82.5
2022-10-20T02:53:23.162Z,82.5
2022-10-20T02:54:39.330Z,82.5
2022-10-20T02:55:55.528Z,82.5
2022-10-20T02:57:10.991Z,82.5
2022-10-20T02:58:26.920Z,82.5
2022-10-20T02:59:43.103Z,82.6
2022-10-20T03:00:59.295Z,82.5
2022-10-20T03:02:15.734Z,82.6
2022-10-20T03:03:31.673Z,82.6
2022-10-20T03:04:48.119Z,82.6
2022-10-20T03:06:03.072Z,82.6
2022-10-20T03:07:18.276Z,82.6
2022-10-20T03:08:33.482Z,82.6
2022-10-20T03:09:48.677Z,82.7
2022-10-20T03:11:03.893Z,82.6
2022-10-20T03:12:19.104Z,82.7
2022-10-20T03:13:35.286Z,82.7
2022-10-20T03:14:51.738Z,82.8
2022-10-20T03:16:07.653Z,82.7
2022-10-20T03:17:24.114Z,82.7
2022-10-20T03:18:40.037Z,82.7
2022-10-20T03:19:56.214Z,82.7
2022-10-20T03:21:12.680Z,82.7
2022-10-20T03:22:28.860Z,82.7
2022-10-20T03:23:44.775Z,82.7
2022-10-20T03:25:00.973Z,82.8
2022-10-20T03:26:17.163Z,82.8
2022-10-20T03:27:33.621Z,82.7
2022-10-20T03:28:48.814Z,82.7
2022-10-20T03:30:05.010Z,82.7
2022-10-20T03:31:20.918Z,82.7
2022-10-20T03:32:37.113Z,82.7
2022-10-20T03:33:53.556Z,82.7
2022-10-20T03:35:09.746Z,82.7
2022-10-20T03:36:25.933Z,82.7
2022-10-20T03:37:40.883Z,82.7
2022-10-20T03:38:56.079Z,82.8
2022-10-20T03:40:11.570Z,82.8
2022-10-20T03:41:26.512Z,82.7
2022-10-20T03:42:42.955Z,82.8
2022-10-20T03:43:59.155Z,82.8
2022-10-20T03:45:15.067Z,82.8
2022-10-20T03:46:31.247Z,82.8
2022-10-20T03:47:47.430Z,82.8
2022-10-20T03:49:03.626Z,82.9
2022-10-20T03:50:19.819Z,82.8
2022-10-20T03:51:35.995Z,82.9
2022-10-20T03:52:52.463Z,82.7
2022-10-20T03:54:08.375Z,82.7
2022-10-20T03:55:24.833Z,82.8
2022-10-20T03:56:40.740Z,83
2022-10-20T03:57:55.946Z,83
2022-10-20T03:59:12.413Z,83
2022-10-20T04:00:28.323Z,83
2022-10-20T04:01:44.515Z,83
2022-10-20T04:03:00.974Z,83
2022-10-20T04:04:16.878Z,83
2022-10-20T04:05:33.079Z,83
2022-10-20T04:06:48.282Z,83
2022-10-20T04:08:03.761Z,83
2022-10-20T04:09:19.684Z,83
2022-10-20T04:10:35.853Z,83.1
2022-10-20T04:11:52.054Z,83.1
2022-10-20T04:13:08.243Z,83.1
2022-10-20T04:14:24.694Z,83.1
2022-10-20T04:15:40.895Z,83.1
2022-10-20T04:16:56.806Z,83
2022-10-20T04:18:13.274Z,83
2022-10-20T04:19:29.173Z,83
2022-10-20T04:20:45.648Z,83.1
2022-10-20T04:22:01.840Z,83.1
2022-10-20T04:23:17.736Z,83.1
2022-10-20T04:24:32.948Z,83.1
2022-10-20T04:25:49.408Z,83.1
2022-10-20T04:27:05.322Z,83.1
2022-10-20T04:28:21.507Z,83.1
2022-10-20T04:29:37.700Z,83.1
2022-10-20T04:30:53.894Z,83.1
2022-10-20T04:32:10.078Z,83.1
2022-10-20T04:33:25.577Z,83.1
2022-10-20T04:34:40.492Z,83
2022-10-20T04:35:55.991Z,83
2022-10-20T04:37:10.907Z,83
2022-10-20T04:38:26.127Z,83.1
2022-10-20T04:39:41.324Z,83
2022-10-20T04:40:57.523Z,83
2022-10-20T04:42:13.705Z,83.1
2022-10-20T04:43:29.897Z,83
2022-10-20T04:44:46.365Z,83
2022-10-20T04:46:02.568Z,83
2022-10-20T04:47:18.473Z,83
2022-10-20T04:48:34.655Z,83
2022-10-20T04:49:50.846Z,83
2022-10-20T04:51:07.318Z,83
2022-10-20T04:52:23.501Z,83
2022-10-20T04:53:39.404Z,83
2022-10-20T04:54:55.602Z,83
2022-10-20T04:56:11.079Z,83
2022-10-20T04:57:26.999Z,83
2022-10-20T04:58:43.469Z,83
2022-10-20T04:59:59.651Z,83
2022-10-20T05:01:15.549Z,83
2022-10-20T05:02:31.754Z,83
2022-10-20T05:03:47.927Z,83
2022-10-20T05:05:03.154Z,83
2022-10-20T05:06:18.347Z,83
2022-10-20T05:07:34.826Z,83
2022-10-20T05:08:50.042Z,82.9
2022-10-20T05:10:04.968Z,82.9
2022-10-20T05:11:21.432Z,82.9
2022-10-20T05:12:37.335Z,82.9
2022-10-20T05:13:53.527Z,83
2022-10-20T05:15:10.006Z,83
2022-10-20T05:16:26.197Z,83
2022-10-20T05:17:42.086Z,83
2022-10-20T05:18:58.273Z,83
2022-10-20T05:20:14.477Z,82.9
2022-10-20T05:21:30.948Z,83
2022-10-20T05:22:47.139Z,83
2022-10-20T05:24:03.317Z,82.9
2022-10-20T05:25:19.222Z,82.9
2022-10-20T05:26:34.437Z,82.9
2022-10-20T05:27:50.618Z,82.9
2022-10-20T05:29:07.091Z,82.9
2022-10-20T05:30:23.005Z,83
2022-10-20T05:31:39.191Z,82.9
2022-10-20T05:32:55.368Z,82.9
2022-10-20T05:34:11.563Z,83
2022-10-20T05:35:26.779Z,82.9
2022-10-20T05:36:41.978Z,82.9
2022-10-20T05:37:57.489Z,82.9
2022-10-20T05:39:12.402Z,82.9
2022-10-20T05:40:28.597Z,82.9
2022-10-20T05:41:44.786Z,82.9
2022-10-20T05:43:00.959Z,82.9
2022-10-20T05:44:17.148Z,83
2022-10-20T05:45:33.633Z,83
2022-10-20T05:46:49.532Z,82.9
2022-10-20T05:48:05.715Z,82.9
2022-10-20T05:49:21.911Z,82.9
2022-10-20T05:50:38.095Z,83
2022-10-20T05:51:54.282Z,82.9
2022-10-20T05:53:10.477Z,82.8
2022-10-20T05:54:26.658Z,82.8
2022-10-20T05:55:41.868Z,82.9
2022-10-20T05:56:58.326Z,83
2022-10-20T05:58:14.527Z,82.9
2022-10-20T05:59:30.717Z,82.9
2022-10-20T06:00:46.906Z,82.9
2022-10-20T06:02:03.077Z,82.9
2022-10-20T06:03:19.264Z,82.8
2022-10-20T06:04:34.494Z,82.9
2022-10-20T06:05:49.698Z,82.8
2022-10-20T06:07:05.872Z,82.9
2022-10-20T06:08:21.094Z,82.9
2022-10-20T06:09:36.293Z,82.8
2022-10-20T06:10:52.502Z,82.8
2022-10-20T06:12:08.701Z,82.8
2022-10-20T06:13:24.867Z,82.8
2022-10-20T06:14:41.096Z,82.9
2022-10-20T06:15:57.251Z,82.9
2022-10-20T06:17:13.441Z,82.7
2022-10-20T06:18:29.662Z,82.7
2022-10-20T06:19:45.811Z,82.8
2022-10-20T06:21:02.012Z,82.8
2022-10-20T06:22:18.184Z,82.7
2022-10-20T06:23:34.381Z,82.8
2022-10-20T06:24:50.575Z,82.7
2022-10-20T06:26:05.782Z,82.7
2022-10-20T06:27:21.986Z,82.8
2022-10-20T06:28:38.148Z,82.7
2022-10-20T06:29:54.341Z,82.7
2022-10-20T06:31:10.525Z,82.7
2022-10-20T06:32:26.726Z,82.7
2022-10-20T06:33:42.907Z,82.7
2022-10-20T06:34:58.117Z,82.7
2022-10-20T06:36:13.330Z,82.7
2022-10-20T06:37:29.546Z,82.8
2022-10-20T06:38:45.710Z,82.9
2022-10-20T06:40:01.926Z,83
2022-10-20T06:41:18.088Z,82.9
2022-10-20T06:42:34.261Z,82.9
2022-10-20T06:43:50.492Z,82.9
2022-10-20T06:45:06.647Z,82.8
2022-10-20T06:46:22.871Z,82.7
2022-10-20T06:47:39.015Z,82.7
2022-10-20T06:48:55.216Z,82.6
2022-10-20T06:50:11.438Z,82.6
2022-10-20T06:51:27.583Z,82.7
2022-10-20T06:52:42.843Z,82.7
2022-10-20T06:53:59.027Z,82.7
2022-10-20T06:55:15.171Z,82.7
2022-10-20T06:56:31.361Z,82.7
2022-10-20T06:57:47.559Z,82.6
2022-10-20T06:59:03.779Z,82.6
2022-10-20T07:00:19.924Z,82.6
2022-10-20T07:01:35.139Z,82.6
2022-10-20T07:02:50.389Z,82.5
2022-10-20T07:04:05.563Z,82.5
2022-10-20T07:05:20.827Z,82.5
2022-10-20T07:06:36.026Z,82.5
2022-10-20T07:07:51.188Z,82.4
2022-10-20T07:09:07.434Z,82.5
2022-10-20T07:10:23.625Z,82.4
2022-10-20T07:11:39.818Z,82.4
2022-10-20T07:12:55.942Z,82.4
2022-10-20T07:14:12.176Z,82.3
2022-10-20T07:15:28.337Z,82.4
2022-10-20T07:16:44.510Z,82.3
2022-10-20T07:18:00.760Z,82.3
2022-10-20T07:19:16.907Z,82.3
2022-10-20T07:20:33.091Z,82.3
2022-10-20T07:21:49.330Z,82.4
2022-10-20T07:23:05.515Z,82.3
2022-10-20T07:24:20.677Z,82.3
2022-10-20T07:25:36.856Z,82.3
2022-10-20T07:26:53.052Z,82.2
2022-10-20T07:28:09.224Z,82.3
2022-10-20T07:29:25.428Z,82.3
2022-10-20T07:30:41.658Z,82.3
2022-10-20T07:31:57.793Z,82.2
2022-10-20T07:33:13.025Z,82.3
2022-10-20T07:34:28.218Z,82.2
2022-10-20T07:35:43.431Z,82.2
2022-10-20T07:36:58.649Z,82.2
2022-10-20T07:38:14.826Z,82.2
2022-10-20T07:39:31.062Z,82.2
2022-10-20T07:40:47.248Z,82.2
2022-10-20T07:42:03.404Z,82.2
2022-10-20T07:43:19.630Z,82.1
2022-10-20T07:44:35.820Z,82.1
2022-10-20T07:45:51.967Z,82.1
2022-10-20T07:47:08.144Z,82.1
2022-10-20T07:48:24.344Z,82.1
2022-10-20T07:49:40.535Z,82
2022-10-20T07:50:56.706Z,82
2022-10-20T07:52:12.957Z,82.1
2022-10-20T07:53:28.119Z,82
2022-10-20T07:56:00.534Z,82
2022-10-20T07:57:16.680Z,82
2022-10-20T07:58:32.872Z,82
2022-10-20T07:59:49.050Z,81.8
2022-10-20T08:01:05.254Z,81.8
2022-10-20T08:02:21.426Z,82
2022-10-20T08:03:36.641Z,81.8
2022-10-20T08:04:51.858Z,81.8
2022-10-20T08:06:07.131Z,81.8
2022-10-20T08:07:22.330Z,81.8
2022-10-20T08:08:38.515Z,81.8
2022-10-20T08:09:54.642Z,81.6
2022-10-20T08:11:10.904Z,81.6
2022-10-20T08:12:27.028Z,81.5
2022-10-20T08:13:43.278Z,81.8
2022-10-20T08:14:59.412Z,81.5
2022-10-20T08:16:15.599Z,81.8
2022-10-20T08:17:31.836Z,81.8
2022-10-20T08:18:47.982Z,81.4
2022-10-20T08:20:04.164Z,81.5
2022-10-20T08:21:20.416Z,81.6
2022-10-20T08:22:36.539Z,81.5
2022-10-20T08:23:51.736Z,81.5
2022-10-20T08:25:08.002Z,81.5
2022-10-20T08:26:24.116Z,81.4
2022-10-20T08:27:40.308Z,81.4
2022-10-20T08:28:56.506Z,81.4
2022-10-20T08:30:12.693Z,81.4
2022-10-20T08:31:28.871Z,81.5
2022-10-20T08:32:44.084Z,81.4
2022-10-20T08:33:59.359Z,81.3
2022-10-20T08:35:14.504Z,81.3
2022-10-20T08:36:29.709Z,81.3
2022-10-20T08:37:45.914Z,81.4
2022-10-20T08:39:02.104Z,81.3
2022-10-20T08:40:18.352Z,81.2
2022-10-20T08:41:34.481Z,81.2
2022-10-20T08:42:50.673Z,81.4
2022-10-20T08:44:06.923Z,81.3
2022-10-20T08:45:23.097Z,81.2
2022-10-20T08:46:39.233Z,81.2
2022-10-20T08:47:55.409Z,81.2
2022-10-20T08:49:11.615Z,81.1
2022-10-20T08:50:27.788Z,81
2022-10-20T08:51:43.973Z,81.1
2022-10-20T08:52:59.197Z,81.1
2022-10-20T08:54:15.382Z,80.9
2022-10-20T08:55:31.632Z,81.1
2022-10-20T08:56:47.828Z,81.1
2022-10-20T08:58:03.938Z,81
2022-10-20T08:59:20.193Z,80.8
2022-10-20T09:00:36.325Z,80.8
2022-10-20T09:01:51.537Z,80.9
2022-10-20T09:03:06.752Z,80.5
2022-10-20T09:04:21.958Z,80.9
2022-10-20T09:05:37.168Z,80.8
2022-10-20T09:06:52.382Z,80.8
2022-10-20T09:08:07.575Z,80.8
2022-10-20T09:09:23.838Z,80.6
2022-10-20T09:10:40.026Z,80.6
2022-10-20T09:11:56.226Z,80.4
2022-10-20T09:13:12.343Z,80.2
2022-10-20T09:14:28.537Z,80.5
2022-10-20T09:15:44.793Z,80.5
2022-10-20T09:17:00.915Z,80.5
2022-10-20T09:18:17.172Z,80.4
2022-10-20T09:19:33.285Z,80.3
2022-10-20T09:20:49.471Z,80.1
2022-10-20T09:22:05.666Z,80.3
2022-10-20T09:23:21.844Z,80.3
2022-10-20T09:24:37.062Z,80.2
2022-10-20T09:25:53.327Z,80.2
2022-10-20T09:27:09.427Z,80.1
2022-10-20T09:28:25.629Z,80
2022-10-20T09:29:41.814Z,80
2022-10-20T09:30:57.990Z,79.8
2022-10-20T09:32:14.179Z,79.8
2022-10-20T09:33:29.407Z,79.5
2022-10-20T09:34:44.614Z,79.7
2022-10-20T09:35:59.824Z,79.5
2022-10-20T09:37:15.111Z,79.3
2022-10-20T09:38:31.223Z,79.3
2022-10-20T09:39:47.402Z,79.3
2022-10-20T09:41:03.671Z,79.3
2022-10-20T09:42:19.775Z,78.9
2022-10-20T09:43:35.965Z,78.6
2022-10-20T09:44:52.159Z,78.9
2022-10-20T09:46:08.346Z,78.8
2022-10-20T09:47:24.533Z,78.3
2022-10-20T09:48:40.733Z,78.3
2022-10-20T09:49:56.990Z,78.4
2022-10-20T09:51:13.113Z,78.3
2022-10-20T09:52:29.287Z,78.4
2022-10-20T09:53:44.569Z,78.4
2022-10-20T09:55:00.684Z,78.3
2022-10-20T09:56:16.884Z,77.9
2022-10-20T09:57:33.059Z,77.9
2022-10-20T09:58:49.261Z,77.7
2022-10-20T10:00:05.438Z,77.8
2022-10-20T10:01:21.718Z,77.7
2022-10-20T10:02:36.932Z,77.5
2022-10-20T10:03:52.126Z,77.6
2022-10-20T10:05:08.234Z,77.5
2022-10-20T10:06:24.440Z,77.4
2022-10-20T10:07:40.617Z,77.5
2022-10-20T10:08:56.803Z,77.4
2022-10-20T10:10:12.984Z,77.3
2022-10-20T10:11:29.270Z,77
2022-10-20T10:12:45.453Z,76.6
2022-10-20T10:14:01.566Z,76.5
2022-10-20T10:15:17.838Z,76.4
2022-10-20T10:16:33.937Z,76.3
2022-10-20T10:17:50.134Z,76.2
2022-10-20T10:19:06.396Z,75.8
2022-10-20T10:20:21.517Z,75.6
2022-10-20T10:21:37.706Z,75.4
2022-10-20T10:22:53.890Z,75
2022-10-20T10:24:10.183Z,74.9
2022-10-20T10:25:26.359Z,74.9
2022-10-20T10:26:42.457Z,74.6
2022-10-20T10:27:58.642Z,74.4
2022-10-20T10:29:13.961Z,73.8
2022-10-20T10:30:29.070Z,73.9
2022-10-20T10:31:44.292Z,73.8
2022-10-20T10:32:59.486Z,73.9
2022-10-20T10:34:14.798Z,73.7
2022-10-20T10:35:29.915Z,73.5
2022-10-20T10:36:46.184Z,73.3
2022-10-20T10:38:02.298Z,73.1
2022-10-20T10:39:18.575Z,72.6
2022-10-20T10:40:34.762Z,72.6
2022-10-20T10:41:50.854Z,72.3
2022-10-20T10:43:07.040Z,71.9
2022-10-20T10:44:23.234Z,71.8
2022-10-20T10:45:39.434Z,71.4
2022-10-20T10:46:55.707Z,71.5
2022-10-20T10:48:11.803Z,71.5
2022-10-20T10:49:27.999Z,71.6
2022-10-20T10:50:44.281Z,71.6
2022-10-20T10:51:59.382Z,71.6
2022-10-20T10:53:15.678Z,71.5
2022-10-20T10:54:31.850Z,71.4
2022-10-20T10:55:47.963Z,71.3
2022-10-20T10:57:04.148Z,71.3
2022-10-20T10:58:20.413Z,71.2
2022-10-20T10:59:36.617Z,71
2022-10-20T11:00:51.745Z,70.7
2022-10-20T11:02:07.024Z,70.5
2022-10-20T11:03:22.161Z,70.4
2022-10-20T11:04:37.355Z,70.5
2022-10-20T11:05:53.640Z,70.5
2022-10-20T11:07:08.757Z,70.3
2022-10-20T11:08:24.941Z,70.2
2022-10-20T11:09:41.244Z,69.9
2022-10-20T11:10:57.317Z,70
2022-10-20T11:12:13.509Z,69.9
2022-10-20T11:13:29.709Z,69.6
2022-10-20T11:14:45.899Z,69.4
2022-10-20T11:16:02.175Z,69.1
2022-10-20T11:17:18.366Z,68.9
2022-10-20T11:18:34.469Z,68.6
2022-10-20T11:19:50.647Z,68.3
2022-10-20T11:21:06.835Z,68
2022-10-20T11:22:23.033Z,67.8
2022-10-20T11:23:38.237Z,67.7
2022-10-20T11:24:54.527Z,67.5
2022-10-20T11:26:10.613Z,67.3
2022-10-20T11:27:26.907Z,67.3
2022-10-20T11:28:42.988Z,67.1
2022-10-20T11:29:58.192Z,67.1
2022-10-20T11:31:13.505Z,67
2022-10-20T11:32:29.700Z,66.9
2022-10-20T11:33:45.796Z,66.9
2022-10-20T11:35:01.982Z,67.3
2022-10-20T11:36:18.170Z,67.1
2022-10-20T11:37:34.360Z,66.8
2022-10-20T11:38:50.547Z,66.5
2022-10-20T11:40:06.837Z,66.3
2022-10-20T11:41:23.019Z,66.2
2022-10-20T11:42:39.202Z,66
2022-10-20T11:43:55.397Z,65.9
2022-10-20T11:45:11.581Z,65.8
2022-10-20T11:46:27.670Z,65.7
2022-10-20T11:47:42.885Z,65.6
2022-10-20T11:48:59.181Z,65.5
2022-10-20T11:50:15.355Z,65.4
2022-10-20T11:51:31.546Z,65.3
2022-10-20T11:52:47.639Z,65.1
2022-10-20T11:54:03.929Z,65
2022-10-20T11:55:20.108Z,64.8
2022-10-20T11:56:35.325Z,64.7
2022-10-20T11:57:50.432Z,64.6
2022-10-20T11:59:05.641Z,64.6
2022-10-20T12:00:20.856Z,64.6
2022-10-20T12:01:36.068Z,64.4
2022-10-20T12:02:51.393Z,64.3
2022-10-20T12:04:07.470Z,64.3
2022-10-20T12:05:23.763Z,64.3
2022-10-20T12:06:39.957Z,64.2
2022-10-20T12:07:56.034Z,64.2
2022-10-20T12:09:12.326Z,64.2
2022-10-20T12:10:28.509Z,64.2
2022-10-20T12:11:44.592Z,64.2
2022-10-20T12:13:00.890Z,64.1
2022-10-20T12:14:17.090Z,63.9
2022-10-20T12:15:33.154Z,63.8
2022-10-20T12:16:49.354Z,63.9
2022-10-20T12:18:05.544Z,64.1
2022-10-20T12:19:20.857Z,64.4
2022-10-20T12:20:36.927Z,64.5
2022-10-20T12:21:53.227Z,64.5
2022-10-20T12:23:09.321Z,64.9
2022-10-20T12:24:25.494Z,65.6
2022-10-20T12:25:41.803Z,66.2
2022-10-20T12:26:57.870Z,66.7
2022-10-20T12:28:13.090Z,67.1
2022-10-20T12:29:28.293Z,67.4
2022-10-20T12:30:44.484Z,67.8
2022-10-20T12:32:00.683Z,68
2022-10-20T12:33:16.863Z,68.3
2022-10-20T12:34:33.167Z,68.3
2022-10-20T12:35:49.352Z,68.6
2022-10-20T12:37:05.445Z,68.8
2022-10-20T12:38:21.622Z,68.9
2022-10-20T12:39:37.926Z,69
2022-10-20T12:40:54.121Z,69.1
2022-10-20T12:42:10.192Z,69.1
2022-10-20T12:43:26.375Z,69.2
2022-10-20T12:44:42.687Z,69.2
2022-10-20T12:45:57.897Z,69.3
2022-10-20T12:47:14.078Z,69.3
2022-10-20T12:48:30.151Z,69.4
2022-10-20T12:49:46.339Z,69.5
2022-10-20T12:51:02.527Z,69.6
2022-10-20T12:52:18.722Z,69.6
2022-10-20T12:53:34.898Z,69.7
2022-10-20T12:54:50.110Z,69.9
2022-10-20T12:56:05.334Z,69.9
2022-10-20T12:57:20.654Z,70.1
2022-10-20T12:58:35.871Z,70.2
2022-10-20T12:59:50.975Z,70.4
2022-10-20T13:01:06.180Z,70.4
2022-10-20T13:02:22.356Z,70.5
2022-10-20T13:03:38.555Z,70.6
2022-10-20T13:04:54.733Z,70.7
2022-10-20T13:06:10.936Z,70.8
2022-10-20T13:07:27.106Z,70.9
2022-10-20T13:08:43.000Z,70.9
2022-10-20T13:09:59.606Z,70.9
2022-10-20T13:11:15.809Z,70.9
2022-10-20T13:12:31.998Z,71
2022-10-20T13:13:48.187Z,71.1
2022-10-20T13:15:04.256Z,71.1
2022-10-20T13:16:20.554Z,71.1
2022-10-20T13:17:35.762Z,71.2
2022-10-20T13:18:51.946Z,71.2
2022-10-20T13:20:08.013Z,71.3
2022-10-20T13:21:24.322Z,71.3
2022-10-20T13:22:40.517Z,71.3
2022-10-20T13:23:56.587Z,71.3
2022-10-20T13:25:12.895Z,71.4
2022-10-20T13:26:27.997Z,71.5
2022-10-20T13:27:43.202Z,71.5
2022-10-20T13:28:58.540Z,71.4
2022-10-20T13:30:13.736Z,71.5
2022-10-20T13:31:29.808Z,71.5
2022-10-20T13:32:45.991Z,71.6
2022-10-20T13:34:02.303Z,71.7
2022-10-20T13:35:18.363Z,71.7
2022-10-20T13:36:34.688Z,71.8
2022-10-20T13:37:50.873Z,71.8
2022-10-20T13:39:06.934Z,71.9
2022-10-20T13:40:23.132Z,71.9
2022-10-20T13:41:39.432Z,72
2022-10-20T13:42:55.509Z,72
2022-10-20T13:44:11.823Z,72.1
2022-10-20T13:45:27.872Z,72.2
2022-10-20T13:46:43.086Z,72.2
2022-10-20T13:47:59.398Z,72.3
2022-10-20T13:49:15.590Z,72.3
2022-10-20T13:50:31.651Z,72.3
2022-10-20T13:51:47.840Z,72.3
2022-10-20T13:53:04.012Z,72.3
2022-10-20T13:54:20.196Z,72.3
2022-10-20T13:55:35.416Z,72.4
2022-10-20T13:56:50.753Z,72.4
2022-10-20T13:58:06.813Z,72.3
2022-10-20T13:59:23.128Z,72.4
2022-10-20T14:00:38.344Z,72.4
2022-10-20T14:01:53.536Z,72.4
2022-10-20T14:03:09.735Z,72.4
2022-10-20T14:04:25.912Z,72.3
2022-10-20T14:05:41.981Z,72.3
2022-10-20T14:06:58.305Z,72.3
2022-10-20T14:08:14.339Z,72.3
2022-10-20T14:09:30.542Z,72.3
2022-10-20T14:10:46.714Z,72.3
2022-10-20T14:12:03.054Z,72.3
2022-10-20T14:13:19.099Z,72.3
2022-10-20T14:14:35.414Z,72.3
2022-10-20T14:15:51.604Z,72.2
2022-10-20T14:17:07.800Z,72.3
2022-10-20T14:18:22.861Z,72.4
2022-10-20T14:19:39.181Z,72.4
2022-10-20T14:20:55.247Z,72.3
2022-10-20T14:22:11.554Z,72.4
2022-10-20T14:23:27.615Z,72.5
2022-10-20T14:24:43.802Z,72.6
2022-10-20T14:25:59.992Z,72.6
2022-10-20T14:27:15.341Z,72.7
2022-10-20T14:28:30.391Z,72.7
2022-10-20T14:29:45.754Z,72.6
2022-10-20T14:31:00.811Z,72.7
2022-10-20T14:32:17.136Z,72.8
2022-10-20T14:33:33.183Z,72.7
2022-10-20T14:34:49.510Z,72.7
2022-10-20T14:36:05.714Z,72.8
2022-10-20T14:37:21.884Z,72.8
2022-10-20T14:38:37.940Z,72.9
2022-10-20T14:39:54.268Z,72.8
2022-10-20T14:41:10.458Z,72.9
2022-10-20T14:42:26.640Z,73
2022-10-20T14:43:42.685Z,73
2022-10-20T14:44:59.023Z,73.1
2022-10-20T14:46:15.202Z,73.1
2022-10-20T14:47:30.255Z,73.1
2022-10-20T14:48:46.451Z,73.1
2022-10-20T14:50:02.792Z,73.2
2022-10-20T14:51:18.819Z,73.1
2022-10-20T14:52:35.161Z,73.1
2022-10-20T14:53:51.353Z,73.2
2022-10-20T14:55:07.398Z,73.3
2022-10-20T14:56:22.596Z,73.4
2022-10-20T14:57:37.811Z,73.4
2022-10-20T14:58:53.012Z,73.5
2022-10-20T15:00:08.226Z,73.5
2022-10-20T15:01:24.403Z,73.5
2022-10-20T15:02:40.745Z,73.6
2022-10-20T15:03:56.926Z,73.6
2022-10-20T15:05:12.970Z,73.6
2022-10-20T15:06:29.159Z,73.7
2022-10-20T15:07:45.338Z,73.7
2022-10-20T15:09:01.536Z,73.7
2022-10-20T15:10:17.716Z,73.8
2022-10-20T15:11:33.897Z,73.8
2022-10-20T15:12:50.243Z,73.9
2022-10-20T15:14:06.283Z,73.9
2022-10-20T15:15:22.625Z,73.9
2022-10-20T15:16:37.818Z,73.9
2022-10-20T15:17:53.853Z,74
2022-10-20T15:19:10.182Z,74
2022-10-20T15:20:26.376Z,74
2022-10-20T15:21:41.437Z,74
2022-10-20T15:22:57.766Z,74
2022-10-20T15:24:13.804Z,74.1
2022-10-20T15:25:29.166Z,74.2
2022-10-20T15:26:44.228Z,74.2
2022-10-20T15:28:00.419Z,74.3
2022-10-20T15:29:15.634Z,74.3
2022-10-20T15:30:30.833Z,74.4
2022-10-20T15:31:47.169Z,74.4
2022-10-20T15:33:03.198Z,74.4
2022-10-20T15:34:19.389Z,74.5
2022-10-20T15:35:35.735Z,74.5
2022-10-20T15:36:51.764Z,74.6
2022-10-20T15:38:08.112Z,74.6
2022-10-20T15:39:24.132Z,74.7
2022-10-20T15:40:40.320Z,74.7
2022-10-20T15:41:56.661Z,74.7
2022-10-20T15:43:12.696Z,74.8
2022-10-20T15:44:29.035Z,74.8
2022-10-20T15:45:45.226Z,74.8
2022-10-20T15:47:00.273Z,74.8
2022-10-20T15:48:16.465Z,74.8
2022-10-20T15:49:32.661Z,74.9
2022-10-20T15:50:48.840Z,75
2022-10-20T15:52:05.027Z,74.9
2022-10-20T15:53:21.364Z,75
2022-10-20T15:54:37.560Z,75
2022-10-20T15:55:52.608Z,75.1
2022-10-20T15:57:07.816Z,75.1
2022-10-20T15:58:24.008Z,75.1
2022-10-20T15:59:40.190Z,75.1
2022-10-20T16:00:56.526Z,75.2
2022-10-20T16:02:12.568Z,75.2
2022-10-20T16:03:28.743Z,75.2
2022-10-20T16:04:44.929Z,75.2
2022-10-20T16:06:01.120Z,75.3
2022-10-20T16:07:17.477Z,75.3
2022-10-20T16:08:33.663Z,75.3
2022-10-20T16:09:49.856Z,75.3
2022-10-20T16:11:05.883Z,75.4
2022-10-20T16:12:22.070Z,75.4
2022-10-20T16:13:37.426Z,75.4
2022-10-20T16:14:53.444Z,75.4
2022-10-20T16:16:09.632Z,75.5
2022-10-20T16:17:25.829Z,75.5
2022-10-20T16:18:42.020Z,75.6
2022-10-20T16:19:58.206Z,75.5
2022-10-20T16:21:14.542Z,75.6
2022-10-20T16:22:29.754Z,75.6
2022-10-20T16:23:44.959Z,75.6
2022-10-20T16:25:00.020Z,75.7
2022-10-20T16:26:15.210Z,75.7
2022-10-20T16:27:30.425Z,75.7
2022-10-20T16:28:45.791Z,75.8
2022-10-20T16:30:01.824Z,75.7
2022-10-20T16:31:18.195Z,75.9
2022-10-20T16:32:34.358Z,75.9
2022-10-20T16:33:50.557Z,75.9
2022-10-20T16:35:06.738Z,75.9
2022-10-20T16:36:22.934Z,76
2022-10-20T16:37:38.951Z,75.9
2022-10-20T16:38:55.292Z,76
2022-10-20T16:40:11.325Z,76
2022-10-20T16:41:27.515Z,75.9
2022-10-20T16:42:43.692Z,76
2022-10-20T16:43:59.876Z,76
2022-10-20T16:45:15.258Z,76
2022-10-20T16:46:31.430Z,76
2022-10-20T16:47:47.625Z,76.1
2022-10-20T16:49:03.641Z,76.1
2022-10-20T16:50:19.826Z,76.1
2022-10-20T16:51:36.028Z,76.2
2022-10-20T16:52:52.215Z,76.2
2022-10-20T16:54:07.593Z,76.2
2022-10-20T16:55:22.623Z,76.2
2022-10-20T16:56:37.839Z,76.3
2022-10-20T16:57:53.205Z,76.3
2022-10-20T16:59:09.394Z,76.3
2022-10-20T17:00:25.585Z,76.3
2022-10-20T17:01:41.593Z,76.3
2022-10-20T17:02:57.787Z,76.2